sensor_id;sensor_type;location;lat;lon;timestamp;pressure;altitude;pressure_sealevel;temperature
54306;BMP280;64314;45.188;5.712;2022-12-07T00:01:14;99513.47;;;18.48
54306;BMP280;64314;45.188;5.712;2022-12-07T00:03:41;99519.00;;;18.48
54306;BMP280;64314;45.188;5.712;2022-12-07T00:06:08;99515.50;;;18.47
54306;BMP280;64314;45.188;5.712;2022-12-07T00:08:35;99508.69;;;18.48
54306;BMP280;64314;45.188;5.712;2022-12-07T00:11:06;99511.47;;;18.48
54306;BMP280;64314;45.188;5.712;2022-12-07T00:13:32;99511.25;;;18.46
54306;BMP280;64314;45.188;5.712;2022-12-07T00:16:03;99509.25;;;18.47
54306;BMP280;64314;45.188;5.712;2022-12-07T00:18:29;99500.22;;;18.46
54306;BMP280;64314;45.188;5.712;2022-12-07T00:20:59;99504.31;;;18.45
54306;BMP280;64314;45.188;5.712;2022-12-07T00:23:25;99507.22;;;18.47
54306;BMP280;64314;45.188;5.712;2022-12-07T00:25:50;99505.75;;;18.46
54306;BMP280;64314;45.188;5.712;2022-12-07T00:28:16;99502.97;;;18.46
54306;BMP280;64314;45.188;5.712;2022-12-07T00:30:41;99507.22;;;18.47
54306;BMP280;64314;45.188;5.712;2022-12-07T00:33:06;99501.69;;;18.47
54306;BMP280;64314;45.188;5.712;2022-12-07T00:35:32;99502.97;;;18.46
54306;BMP280;64314;45.188;5.712;2022-12-07T00:37:57;99504.47;;;18.47
54306;BMP280;64314;45.188;5.712;2022-12-07T00:40:22;99505.94;;;18.48
54306;BMP280;64314;45.188;5.712;2022-12-07T00:42:47;99502.44;;;18.48
54306;BMP280;64314;45.188;5.712;2022-12-07T00:45:13;99507.97;;;18.48
54306;BMP280;64314;45.188;5.712;2022-12-07T00:47:38;99498.06;;;18.45
54306;BMP280;64314;45.188;5.712;2022-12-07T00:50:04;99507.97;;;18.48
54306;BMP280;64314;45.188;5.712;2022-12-07T00:52:29;99502.44;;;18.48
54306;BMP280;64314;45.188;5.712;2022-12-07T00:54:55;99507.22;;;18.47
54306;BMP280;64314;45.188;5.712;2022-12-07T00:57:20;99503.16;;;18.48
54306;BMP280;64314;45.188;5.712;2022-12-07T00:59:45;99507.22;;;18.47
54306;BMP280;64314;45.188;5.712;2022-12-07T01:02:11;99503.59;;;18.45
54306;BMP280;64314;45.188;5.712;2022-12-07T01:04:36;99513.47;;;18.48
54306;BMP280;64314;45.188;5.712;2022-12-07T01:07:01;99514.75;;;18.47
54306;BMP280;64314;45.188;5.712;2022-12-07T01:09:27;99510.72;;;18.48
54306;BMP280;64314;45.188;5.712;2022-12-07T01:11:52;99513.47;;;18.48
54306;BMP280;64314;45.188;5.712;2022-12-07T01:14:17;99514.75;;;18.47
54306;BMP280;64314;45.188;5.712;2022-12-07T01:16:42;99516.78;;;18.46
54306;BMP280;64314;45.188;5.712;2022-12-07T01:19:08;99509.09;;;18.45
54306;BMP280;64314;45.188;5.712;2022-12-07T01:21:34;99505.59;;;18.44
54306;BMP280;64314;45.188;5.712;2022-12-07T01:24:02;99515.38;;;18.45
54306;BMP280;64314;45.188;5.712;2022-12-07T01:26:27;99509.97;;;18.47
54306;BMP280;64314;45.188;5.712;2022-12-07T01:28:53;99509.09;;;18.45
54306;BMP280;64314;45.188;5.712;2022-12-07T01:31:21;99504.31;;;18.45
54306;BMP280;64314;45.188;5.712;2022-12-07T01:33:49;99508.69;;;18.48
54306;BMP280;64314;45.188;5.712;2022-12-07T01:36:29;99512.00;;;18.47
54306;BMP280;64314;45.188;5.712;2022-12-07T01:38:58;99505.75;;;18.46
54306;BMP280;64314;45.188;5.712;2022-12-07T01:41:26;99506.69;;;18.49
54306;BMP280;64314;45.188;5.712;2022-12-07T01:44:25;99499.09;;;18.49
54306;BMP280;64314;45.188;5.712;2022-12-07T01:46:56;99500.56;;;18.50
54306;BMP280;64314;45.188;5.712;2022-12-07T01:49:32;99497.97;;;18.52
54306;BMP280;64314;45.188;5.712;2022-12-07T01:54:32;99501.28;;;18.51
54306;BMP280;64314;45.188;5.712;2022-12-07T01:56:58;99493.56;;;18.49
54306;BMP280;64314;45.188;5.712;2022-12-07T01:59:25;99503.50;;;18.52
54306;BMP280;64314;45.188;5.712;2022-12-07T02:01:52;99495.94;;;18.53
54306;BMP280;64314;45.188;5.712;2022-12-07T02:04:18;99497.97;;;18.52
54306;BMP280;64314;45.188;5.712;2022-12-07T02:06:44;99478.47;;;18.50
54306;BMP280;64314;45.188;5.712;2022-12-07T02:09:10;99491.13;;;18.53
54306;BMP280;64314;45.188;5.712;2022-12-07T02:11:35;99492.47;;;18.52
54306;BMP280;64314;45.188;5.712;2022-12-07T02:14:01;99491.88;;;18.54
54306;BMP280;64314;45.188;5.712;2022-12-07T02:19:38;99500.16;;;18.54
54306;BMP280;64314;45.188;5.712;2022-12-07T02:22:25;99498.16;;;18.54
54306;BMP280;64314;45.188;5.712;2022-12-07T02:30:53;99488.53;;;18.55
54306;BMP280;64314;45.188;5.712;2022-12-07T02:33:26;99485.06;;;18.55
54306;BMP280;64314;45.188;5.712;2022-12-07T02:36:05;99488.53;;;18.55
54306;BMP280;64314;45.188;5.712;2022-12-07T02:38:47;99493.50;;;18.57
54306;BMP280;64314;45.188;5.712;2022-12-07T02:41:16;99481.72;;;18.56
54306;BMP280;64314;45.188;5.712;2022-12-07T02:43:46;99484.47;;;18.56
54306;BMP280;64314;45.188;5.712;2022-12-07T02:46:21;99480.41;;;18.58
54306;BMP280;64314;45.188;5.712;2022-12-07T02:48:47;99481.72;;;18.56
54306;BMP280;64314;45.188;5.712;2022-12-07T02:51:13;99480.25;;;18.55
54306;BMP280;64314;45.188;5.712;2022-12-07T02:53:41;99490.00;;;18.56
54306;BMP280;64314;45.188;5.712;2022-12-07T02:58:54;99481.91;;;18.59
54306;BMP280;64314;45.188;5.712;2022-12-07T03:02:05;99486.81;;;18.60
54306;BMP280;64314;45.188;5.712;2022-12-07T03:04:52;99486.81;;;18.60
54306;BMP280;64314;45.188;5.712;2022-12-07T03:18:25;99481.28;;;18.60
54306;BMP280;64314;45.188;5.712;2022-12-07T03:20:55;99473.63;;;18.59
54306;BMP280;64314;45.188;5.712;2022-12-07T03:23:24;99473.75;;;18.61
54306;BMP280;64314;45.188;5.712;2022-12-07T03:25:53;99472.88;;;18.58
54306;BMP280;64314;45.188;5.712;2022-12-07T03:28:22;99467.47;;;18.60
54306;BMP280;64314;45.188;5.712;2022-12-07T03:30:59;99464.72;;;18.60
54306;BMP280;64314;45.188;5.712;2022-12-07T03:33:32;99471.72;;;18.61
54306;BMP280;64314;45.188;5.712;2022-12-07T03:39:28;99469.69;;;18.62
54306;BMP280;64314;45.188;5.712;2022-12-07T03:41:57;99466.94;;;18.62
54306;BMP280;64314;45.188;5.712;2022-12-07T03:44:24;99472.47;;;18.62
54306;BMP280;64314;45.188;5.712;2022-12-07T03:47:03;99472.63;;;18.64
54306;BMP280;64314;45.188;5.712;2022-12-07T03:52:26;99465.66;;;18.63
54306;BMP280;64314;45.188;5.712;2022-12-07T03:57:21;99465.06;;;18.64
54306;BMP280;64314;45.188;5.712;2022-12-07T03:59:47;99458.81;;;18.64
54306;BMP280;64314;45.188;5.712;2022-12-07T04:02:20;99462.31;;;18.64
54306;BMP280;64314;45.188;5.712;2022-12-07T04:04:51;99460.25;;;18.65
54306;BMP280;64314;45.188;5.712;2022-12-07T04:07:18;99450.53;;;18.64
54306;BMP280;64314;45.188;5.712;2022-12-07T04:09:45;99449.22;;;18.65
54306;BMP280;64314;45.188;5.712;2022-12-07T04:12:10;99440.78;;;18.63
54306;BMP280;64314;45.188;5.712;2022-12-07T04:14:39;99444.25;;;18.63
54306;BMP280;64314;45.188;5.712;2022-12-07T04:17:06;99447.75;;;18.64
54306;BMP280;64314;45.188;5.712;2022-12-07T04:19:36;99448.50;;;18.64
54306;BMP280;64314;45.188;5.712;2022-12-07T04:22:03;99447.19;;;18.65
54306;BMP280;64314;45.188;5.712;2022-12-07T04:24:29;99433.94;;;18.64
54306;BMP280;64314;45.188;5.712;2022-12-07T04:26:54;99440.34;;;18.66
54306;BMP280;64314;45.188;5.712;2022-12-07T04:29:20;99438.91;;;18.65
54306;BMP280;64314;45.188;5.712;2022-12-07T04:31:46;99448.63;;;18.66
54306;BMP280;64314;45.188;5.712;2022-12-07T04:34:12;99443.13;;;18.66
54306;BMP280;64314;45.188;5.712;2022-12-07T04:36:38;99441.09;;;18.67
54306;BMP280;64314;45.188;5.712;2022-12-07T04:39:06;99435.97;;;18.63
54306;BMP280;64314;45.188;5.712;2022-12-07T04:41:34;99450.09;;;18.67
54306;BMP280;64314;45.188;5.712;2022-12-07T04:44:02;99454.91;;;18.67
54306;BMP280;64314;45.188;5.712;2022-12-07T04:46:30;99437.47;;;18.64
54306;BMP280;64314;45.188;5.712;2022-12-07T04:48:56;99443.13;;;18.66
54306;BMP280;64314;45.188;5.712;2022-12-07T04:51:24;99437.78;;;18.68
54306;BMP280;64314;45.188;5.712;2022-12-07T04:53:50;99429.50;;;18.68
54306;BMP280;64314;45.188;5.712;2022-12-07T04:56:16;99440.53;;;18.68
54306;BMP280;64314;45.188;5.712;2022-12-07T04:58:43;99431.19;;;18.64
54306;BMP280;64314;45.188;5.712;2022-12-07T05:01:09;99429.50;;;18.68
54306;BMP280;64314;45.188;5.712;2022-12-07T05:03:36;99430.78;;;18.67
54306;BMP280;64314;45.188;5.712;2022-12-07T05:06:03;99430.94;;;18.69
54306;BMP280;64314;45.188;5.712;2022-12-07T05:08:28;99421.19;;;18.68
54306;BMP280;64314;45.188;5.712;2022-12-07T05:10:53;99423.97;;;18.68
54306;BMP280;64314;45.188;5.712;2022-12-07T05:13:19;99420.47;;;18.68
54306;BMP280;64314;45.188;5.712;2022-12-07T05:15:44;99427.47;;;18.69
54306;BMP280;64314;45.188;5.712;2022-12-07T05:18:11;99417.84;;;18.70
54306;BMP280;64314;45.188;5.712;2022-12-07T05:20:40;99417.84;;;18.70
54306;BMP280;64314;45.188;5.712;2022-12-07T05:23:05;99421.34;;;18.70
54306;BMP280;64314;45.188;5.712;2022-12-07T05:25:31;99408.84;;;18.69
54306;BMP280;64314;45.188;5.712;2022-12-07T05:27:56;99406.78;;;18.70
54306;BMP280;64314;45.188;5.712;2022-12-07T05:30:23;99402.72;;;18.71
54306;BMP280;64314;45.188;5.712;2022-12-07T05:32:48;99399.09;;;18.68
54306;BMP280;64314;45.188;5.712;2022-12-07T05:35:13;99399.84;;;18.69
54306;BMP280;64314;45.188;5.712;2022-12-07T05:37:39;99401.44;;;18.72
54306;BMP280;64314;45.188;5.712;2022-12-07T05:40:05;99384.13;;;18.71
54306;BMP280;64314;45.188;5.712;2022-12-07T05:42:31;99384.88;;;18.72
54306;BMP280;64314;45.188;5.712;2022-12-07T05:44:56;99383.56;;;18.73
54306;BMP280;64314;45.188;5.712;2022-12-07T05:47:22;99380.09;;;18.72
54306;BMP280;64314;45.188;5.712;2022-12-07T05:49:47;99391.84;;;18.73
54306;BMP280;64314;45.188;5.712;2022-12-07T05:52:15;99398.81;;;18.74
54306;BMP280;64314;45.188;5.712;2022-12-07T05:54:41;99396.06;;;18.74
54306;BMP280;64314;45.188;5.712;2022-12-07T05:57:06;99404.34;;;18.74
54306;BMP280;64314;45.188;5.712;2022-12-07T05:59:32;99400.13;;;18.73
54306;BMP280;64314;45.188;5.712;2022-12-07T06:02:10;99393.91;;;18.72
54306;BMP280;64314;45.188;5.712;2022-12-07T06:04:39;99393.91;;;18.72
54306;BMP280;64314;45.188;5.712;2022-12-07T06:07:05;99405.66;;;18.73
54306;BMP280;64314;45.188;5.712;2022-12-07T06:09:31;99405.66;;;18.73
54306;BMP280;64314;45.188;5.712;2022-12-07T06:11:57;99399.00;;;18.76
54306;BMP280;64314;45.188;5.712;2022-12-07T06:14:41;99406.41;;;18.73
54306;BMP280;64314;45.188;5.712;2022-12-07T06:17:07;99404.34;;;18.74
54306;BMP280;64314;45.188;5.712;2022-12-07T06:19:33;99401.59;;;18.74
54306;BMP280;64314;45.188;5.712;2022-12-07T06:21:58;99409.16;;;18.73
54306;BMP280;64314;45.188;5.712;2022-12-07T06:24:24;99408.41;;;18.73
54306;BMP280;64314;45.188;5.712;2022-12-07T06:26:50;99404.22;;;18.72
54306;BMP280;64314;45.188;5.712;2022-12-07T06:29:16;99409.88;;;18.74
54306;BMP280;64314;45.188;5.712;2022-12-07T06:31:41;99406.41;;;18.73
54306;BMP280;64314;45.188;5.712;2022-12-07T06:34:10;99413.03;;;18.70
54306;BMP280;64314;45.188;5.712;2022-12-07T06:36:36;99404.94;;;18.72
54306;BMP280;64314;45.188;5.712;2022-12-07T06:39:02;99405.66;;;18.73
54306;BMP280;64314;45.188;5.712;2022-12-07T06:41:27;99408.41;;;18.73
54306;BMP280;64314;45.188;5.712;2022-12-07T06:43:53;99407.72;;;18.72
54306;BMP280;64314;45.188;5.712;2022-12-07T06:46:18;99404.75;;;18.70
54306;BMP280;64314;45.188;5.712;2022-12-07T06:48:44;99403.47;;;18.71
54306;BMP280;64314;45.188;5.712;2022-12-07T06:51:09;99416.72;;;18.73
54306;BMP280;64314;45.188;5.712;2022-12-07T06:53:35;99405.50;;;18.71
54306;BMP280;64314;45.188;5.712;2022-12-07T06:56:00;99397.94;;;18.71
54306;BMP280;64314;45.188;5.712;2022-12-07T06:58:26;99396.34;;;18.68
54306;BMP280;64314;45.188;5.712;2022-12-07T07:00:52;99409.00;;;18.71
54306;BMP280;64314;45.188;5.712;2022-12-07T07:03:17;99397.22;;;18.71
54306;BMP280;64314;45.188;5.712;2022-12-07T07:05:43;99399.84;;;18.69
54306;BMP280;64314;45.188;5.712;2022-12-07T07:08:10;99405.50;;;18.71
54306;BMP280;64314;45.188;5.712;2022-12-07T07:10:36;99406.78;;;18.70
54306;BMP280;64314;45.188;5.712;2022-12-07T07:13:02;99406.06;;;18.69
54306;BMP280;64314;45.188;5.712;2022-12-07T07:15:28;99402.00;;;18.70
54306;BMP280;64314;45.188;5.712;2022-12-07T07:17:53;99399.84;;;18.69
54306;BMP280;64314;45.188;5.712;2022-12-07T07:20:19;99402.00;;;18.70
54306;BMP280;64314;45.188;5.712;2022-12-07T07:22:44;99405.50;;;18.71
54306;BMP280;64314;45.188;5.712;2022-12-07T07:25:09;99410.28;;;18.70
54306;BMP280;64314;45.188;5.712;2022-12-07T07:27:35;99406.78;;;18.70
54306;BMP280;64314;45.188;5.712;2022-12-07T07:30:00;99413.78;;;18.71
54306;BMP280;64314;45.188;5.712;2022-12-07T07:32:25;99412.31;;;18.70
54306;BMP280;64314;45.188;5.712;2022-12-07T07:34:51;99417.84;;;18.70
54306;BMP280;64314;45.188;5.712;2022-12-07T07:37:16;99407.53;;;18.70
54306;BMP280;64314;45.188;5.712;2022-12-07T07:39:42;99418.56;;;18.70
54306;BMP280;64314;45.188;5.712;2022-12-07T07:42:07;99419.31;;;18.71
54306;BMP280;64314;45.188;5.712;2022-12-07T07:44:33;99423.34;;;18.70
54306;BMP280;64314;45.188;5.712;2022-12-07T07:46:59;99422.06;;;18.71
54306;BMP280;64314;45.188;5.712;2022-12-07T07:49:25;99423.34;;;18.70
54306;BMP280;64314;45.188;5.712;2022-12-07T07:51:50;99417.84;;;18.70
54306;BMP280;64314;45.188;5.712;2022-12-07T07:54:16;99418.56;;;18.70
54306;BMP280;64314;45.188;5.712;2022-12-07T07:56:41;99420.47;;;18.68
54306;BMP280;64314;45.188;5.712;2022-12-07T07:59:07;99425.41;;;18.69
54306;BMP280;64314;45.188;5.712;2022-12-07T08:01:32;99422.66;;;18.69
54306;BMP280;64314;45.188;5.712;2022-12-07T08:03:58;99419.31;;;18.71
54306;BMP280;64314;45.188;5.712;2022-12-07T08:06:23;99417.84;;;18.70
54306;BMP280;64314;45.188;5.712;2022-12-07T08:08:48;99413.78;;;18.71
54306;BMP280;64314;45.188;5.712;2022-12-07T08:11:13;99422.06;;;18.71
54306;BMP280;64314;45.188;5.712;2022-12-07T08:13:39;99421.34;;;18.70
54306;BMP280;64314;45.188;5.712;2022-12-07T08:16:07;99421.34;;;18.70
54306;BMP280;64314;45.188;5.712;2022-12-07T08:18:40;99423.53;;;18.72
54306;BMP280;64314;45.188;5.712;2022-12-07T08:21:14;99430.53;;;18.73
54306;BMP280;64314;45.188;5.712;2022-12-07T08:23:40;99425.56;;;18.71
54306;BMP280;64314;45.188;5.712;2022-12-07T08:26:09;99430.34;;;18.71
54306;BMP280;64314;45.188;5.712;2022-12-07T08:28:35;99431.09;;;18.71
54306;BMP280;64314;45.188;5.712;2022-12-07T08:31:05;99430.34;;;18.71
54306;BMP280;64314;45.188;5.712;2022-12-07T08:33:32;99426.13;;;18.70
54306;BMP280;64314;45.188;5.712;2022-12-07T08:36:05;99435.16;;;18.70
54306;BMP280;64314;45.188;5.712;2022-12-07T08:38:31;99443.44;;;18.70
54306;BMP280;64314;45.188;5.712;2022-12-07T08:41:00;99442.41;;;18.66
54306;BMP280;64314;45.188;5.712;2022-12-07T08:43:25;99444.03;;;18.69
54306;BMP280;64314;45.188;5.712;2022-12-07T08:46:07;99444.03;;;18.69
54306;BMP280;64314;45.188;5.712;2022-12-07T08:48:36;99448.09;;;18.68
54306;BMP280;64314;45.188;5.712;2022-12-07T08:51:02;99455.09;;;18.69
54306;BMP280;64314;45.188;5.712;2022-12-07T08:53:29;99452.13;;;18.67
54306;BMP280;64314;45.188;5.712;2022-12-07T08:55:56;99449.56;;;18.69
54306;BMP280;64314;45.188;5.712;2022-12-07T08:58:21;99451.59;;;18.68
54306;BMP280;64314;45.188;5.712;2022-12-07T09:00:47;99455.09;;;18.69
54306;BMP280;64314;45.188;5.712;2022-12-07T09:03:12;99448.81;;;18.68
54306;BMP280;64314;45.188;5.712;2022-12-07T09:05:37;99453.63;;;18.68
54306;BMP280;64314;45.188;5.712;2022-12-07T09:08:03;99453.63;;;18.68
54306;BMP280;64314;45.188;5.712;2022-12-07T09:10:29;99452.31;;;18.69
54306;BMP280;64314;45.188;5.712;2022-12-07T09:12:54;99460.63;;;18.69
54306;BMP280;64314;45.188;5.712;2022-12-07T09:15:20;99461.16;;;18.67
54306;BMP280;64314;45.188;5.712;2022-12-07T09:17:45;99459.88;;;18.68
54306;BMP280;64314;45.188;5.712;2022-12-07T09:20:11;99454.91;;;18.67
54306;BMP280;64314;45.188;5.712;2022-12-07T09:22:37;99468.16;;;18.68
54306;BMP280;64314;45.188;5.712;2022-12-07T09:25:03;99466.13;;;18.69
54306;BMP280;64314;45.188;5.712;2022-12-07T09:27:29;99465.41;;;18.68
54306;BMP280;64314;45.188;5.712;2022-12-07T09:29:55;99461.91;;;18.68
54306;BMP280;64314;45.188;5.712;2022-12-07T09:32:20;99457.66;;;18.67
54306;BMP280;64314;45.188;5.712;2022-12-07T09:34:46;99465.22;;;18.66
54306;BMP280;64314;45.188;5.712;2022-12-07T09:37:11;99466.53;;;18.65
54306;BMP280;64314;45.188;5.712;2022-12-07T09:39:40;99461.56;;;18.64
54306;BMP280;64314;45.188;5.712;2022-12-07T09:42:06;99460.25;;;18.65
54306;BMP280;64314;45.188;5.712;2022-12-07T09:44:33;99465.22;;;18.66
54306;BMP280;64314;45.188;5.712;2022-12-07T09:46:59;99468.72;;;18.67
54306;BMP280;64314;45.188;5.712;2022-12-07T09:49:28;99461.75;;;18.66
54306;BMP280;64314;45.188;5.712;2022-12-07T09:52:16;99466.34;;;18.63
54306;BMP280;64314;45.188;5.712;2022-12-07T09:54:46;99465.78;;;18.65
54306;BMP280;64314;45.188;5.712;2022-12-07T09:57:12;99467.09;;;18.64
54306;BMP280;64314;45.188;5.712;2022-12-07T09:59:38;99455.31;;;18.63
54306;BMP280;64314;45.188;5.712;2022-12-07T10:02:41;99456.63;;;18.62
54306;BMP280;64314;45.188;5.712;2022-12-07T10:05:13;99446.31;;;18.63
54306;BMP280;64314;45.188;5.712;2022-12-07T10:07:39;99447.59;;;18.62
54306;BMP280;64314;45.188;5.712;2022-12-07T10:10:13;99450.38;;;18.62
54306;BMP280;64314;45.188;5.712;2022-12-07T10:13:14;99441.88;;;18.59
54306;BMP280;64314;45.188;5.712;2022-12-07T10:15:46;99437.09;;;18.60
54306;BMP280;64314;45.188;5.712;2022-12-07T10:18:31;99435.97;;;18.63
54306;BMP280;64314;45.188;5.712;2022-12-07T10:23:33;99433.78;;;18.62
54306;BMP280;64314;45.188;5.712;2022-12-07T10:25:59;99425.50;;;18.62
54306;BMP280;64314;45.188;5.712;2022-12-07T10:28:33;99422.00;;;18.61
54306;BMP280;64314;45.188;5.712;2022-12-07T10:31:02;99418.50;;;18.61
54306;BMP280;64314;45.188;5.712;2022-12-07T10:36:02;99419.78;;;18.59
54306;BMP280;64314;45.188;5.712;2022-12-07T10:38:45;99412.84;;;18.59
54306;BMP280;64314;45.188;5.712;2022-12-07T10:41:11;99404.56;;;18.59
54306;BMP280;64314;45.188;5.712;2022-12-07T10:43:36;99403.09;;;18.58
54306;BMP280;64314;45.188;5.712;2022-12-07T10:48:55;99403.81;;;18.58
54306;BMP280;64314;45.188;5.712;2022-12-07T10:59:59;99396.09;;;18.56
54306;BMP280;64314;45.188;5.712;2022-12-07T11:02:39;99394.63;;;18.55
54306;BMP280;64314;45.188;5.712;2022-12-07T11:05:27;99394.63;;;18.55
54306;BMP280;64314;45.188;5.712;2022-12-07T11:08:00;99388.41;;;18.55
54306;BMP280;64314;45.188;5.712;2022-12-07T11:22:06;99367.44;;;18.52
54306;BMP280;64314;45.188;5.712;2022-12-07T11:24:57;99357.69;;;18.51
54306;BMP280;64314;45.188;5.712;2022-12-07T11:27:37;99354.22;;;18.50
54306;BMP280;64314;45.188;5.712;2022-12-07T11:30:19;99354.38;;;18.52
54306;BMP280;64314;45.188;5.712;2022-12-07T11:33:12;99357.84;;;18.53
54306;BMP280;64314;45.188;5.712;2022-12-07T11:35:46;99350.28;;;18.53
54306;BMP280;64314;45.188;5.712;2022-12-07T11:38:17;99351.63;;;18.52
54306;BMP280;64314;45.188;5.712;2022-12-07T11:40:50;99344.03;;;18.53
54306;BMP280;64314;45.188;5.712;2022-12-07T11:43:24;99342.75;;;18.54
54306;BMP280;64314;45.188;5.712;2022-12-07T11:45:58;99345.50;;;18.54
54306;BMP280;64314;45.188;5.712;2022-12-07T11:48:33;99337.22;;;18.54
54306;BMP280;64314;45.188;5.712;2022-12-07T11:51:01;99333.00;;;18.53
54306;BMP280;64314;45.188;5.712;2022-12-07T11:53:33;99333.00;;;18.53
54306;BMP280;64314;45.188;5.712;2022-12-07T11:56:09;99326.44;;;18.48
54306;BMP280;64314;45.188;5.712;2022-12-07T11:58:53;99331.53;;;18.52
54306;BMP280;64314;45.188;5.712;2022-12-07T12:01:42;99333.00;;;18.53
54306;BMP280;64314;45.188;5.712;2022-12-07T12:04:24;99326.03;;;18.52
54306;BMP280;64314;45.188;5.712;2022-12-07T12:06:50;99325.13;;;18.49
54306;BMP280;64314;45.188;5.712;2022-12-07T12:09:33;99328.78;;;18.52
54306;BMP280;64314;45.188;5.712;2022-12-07T12:12:28;99313.50;;;18.51
54306;BMP280;64314;45.188;5.712;2022-12-07T12:21:09;99328.63;;;18.50
54306;BMP280;64314;45.188;5.712;2022-12-07T12:23:40;99314.66;;;18.48
54306;BMP280;64314;45.188;5.712;2022-12-07T12:26:08;99325.72;;;18.48
54306;BMP280;64314;45.188;5.712;2022-12-07T12:28:41;99319.44;;;18.47
54306;BMP280;64314;45.188;5.712;2022-12-07T12:31:15;99325.72;;;18.48
54306;BMP280;64314;45.188;5.712;2022-12-07T12:33:48;99321.47;;;18.47
54306;BMP280;64314;45.188;5.712;2022-12-07T12:41:54;99315.06;;;18.44
54306;BMP280;64314;45.188;5.712;2022-12-07T12:49:33;99307.75;;;18.39
54306;BMP280;64314;45.188;5.712;2022-12-07T12:54:36;99303.13;;;18.42
54306;BMP280;64314;45.188;5.712;2022-12-07T12:57:11;99305.91;;;18.42
54306;BMP280;64314;45.188;5.712;2022-12-07T12:59:39;99304.78;;;18.45
54306;BMP280;64314;45.188;5.712;2022-12-07T13:07:11;99306.78;;;18.44
54306;BMP280;64314;45.188;5.712;2022-12-07T13:09:43;99300.53;;;18.44
54306;BMP280;64314;45.188;5.712;2022-12-07T13:12:14;99307.53;;;18.45
54306;BMP280;64314;45.188;5.712;2022-12-07T13:14:43;99308.09;;;18.43
54306;BMP280;64314;45.188;5.712;2022-12-07T13:20:01;99292.09;;;18.42
54306;BMP280;64314;45.188;5.712;2022-12-07T13:27:48;99280.91;;;18.40
54306;BMP280;64314;45.188;5.712;2022-12-07T13:30:18;99273.94;;;18.39
54306;BMP280;64314;45.188;5.712;2022-12-07T13:32:55;99273.19;;;18.38
54306;BMP280;64314;45.188;5.712;2022-12-07T13:35:35;99272.03;;;18.41
54306;BMP280;64314;45.188;5.712;2022-12-07T13:38:22;99272.78;;;18.42
54306;BMP280;64314;45.188;5.712;2022-12-07T13:43:29;99270.59;;;18.40
54306;BMP280;64314;45.188;5.712;2022-12-07T13:45:57;99262.16;;;18.38
54306;BMP280;64314;45.188;5.712;2022-12-07T13:48:36;99261.41;;;18.38
54306;BMP280;64314;45.188;5.712;2022-12-07T13:51:20;99266.94;;;18.38
54306;BMP280;64314;45.188;5.712;2022-12-07T13:53:48;99260.66;;;18.37
54306;BMP280;64314;45.188;5.712;2022-12-07T13:56:14;99268.41;;;18.39
54306;BMP280;64314;45.188;5.712;2022-12-07T13:58:40;99264.91;;;18.38
54306;BMP280;64314;45.188;5.712;2022-12-07T14:01:06;99264.31;;;18.40
54306;BMP280;64314;45.188;5.712;2022-12-07T14:03:33;99264.75;;;18.36
54306;BMP280;64314;45.188;5.712;2022-12-07T14:08:47;99267.09;;;18.40
54306;BMP280;64314;45.188;5.712;2022-12-07T14:11:15;99269.84;;;18.40
54306;BMP280;64314;45.188;5.712;2022-12-07T14:13:54;99260.66;;;18.37
54306;BMP280;64314;45.188;5.712;2022-12-07T14:16:27;99264.75;;;18.36
54306;BMP280;64314;45.188;5.712;2022-12-07T14:18:54;99268.41;;;18.39
54306;BMP280;64314;45.188;5.712;2022-12-07T14:21:22;99264.91;;;18.38
54306;BMP280;64314;45.188;5.712;2022-12-07T14:24:17;99269.84;;;18.40
54306;BMP280;64314;45.188;5.712;2022-12-07T14:26:47;99273.19;;;18.38
54306;BMP280;64314;45.188;5.712;2022-12-07T14:31:51;99268.41;;;18.39
54306;BMP280;64314;45.188;5.712;2022-12-07T14:34:19;99270.44;;;18.38
54306;BMP280;64314;45.188;5.712;2022-12-07T14:36:45;99269.13;;;18.39
54306;BMP280;64314;45.188;5.712;2022-12-07T14:39:10;99269.13;;;18.39
54306;BMP280;64314;45.188;5.712;2022-12-07T14:41:36;99263.59;;;18.39
54306;BMP280;64314;45.188;5.712;2022-12-07T14:44:17;99255.03;;;18.35
54306;BMP280;64314;45.188;5.712;2022-12-07T14:46:43;99270.44;;;18.38
54306;BMP280;64314;45.188;5.712;2022-12-07T14:49:08;99265.47;;;18.37
54306;BMP280;64314;45.188;5.712;2022-12-07T14:51:36;99266.19;;;18.37
54306;BMP280;64314;45.188;5.712;2022-12-07T14:54:04;99267.66;;;18.38
54306;BMP280;64314;45.188;5.712;2022-12-07T14:56:30;99267.66;;;18.38
54306;BMP280;64314;45.188;5.712;2022-12-07T14:58:55;99257.78;;;18.35
54306;BMP280;64314;45.188;5.712;2022-12-07T15:01:21;99264.91;;;18.38
54306;BMP280;64314;45.188;5.712;2022-12-07T15:03:46;99259.94;;;18.37
54306;BMP280;64314;45.188;5.712;2022-12-07T15:06:17;99261.41;;;18.38
54306;BMP280;64314;45.188;5.712;2022-12-07T15:08:43;99255.16;;;18.37
54306;BMP280;64314;45.188;5.712;2022-12-07T15:11:13;99255.88;;;18.38
54306;BMP280;64314;45.188;5.712;2022-12-07T15:13:39;99254.41;;;18.37
54306;BMP280;64314;45.188;5.712;2022-12-07T15:16:23;99248.88;;;18.37
54306;BMP280;64314;45.188;5.712;2022-12-07T15:18:48;99248.19;;;18.36
54306;BMP280;64314;45.188;5.712;2022-12-07T15:21:14;99248.88;;;18.37
54306;BMP280;64314;45.188;5.712;2022-12-07T15:23:40;99249.63;;;18.37
54306;BMP280;64314;45.188;5.712;2022-12-07T15:26:05;99243.97;;;18.35
54306;BMP280;64314;45.188;5.712;2022-12-07T15:28:31;99239.00;;;18.34
54306;BMP280;64314;45.188;5.712;2022-12-07T15:30:56;99252.25;;;18.35
54306;BMP280;64314;45.188;5.712;2022-12-07T15:33:21;99244.69;;;18.36
54306;BMP280;64314;45.188;5.712;2022-12-07T15:35:47;99241.94;;;18.36
54306;BMP280;64314;45.188;5.712;2022-12-07T15:38:12;99242.66;;;18.36
54306;BMP280;64314;45.188;5.712;2022-12-07T15:40:38;99232.94;;;18.35
54306;BMP280;64314;45.188;5.712;2022-12-07T15:43:04;99229.44;;;18.35
54306;BMP280;64314;45.188;5.712;2022-12-07T15:45:30;99227.22;;;18.33
54306;BMP280;64314;45.188;5.712;2022-12-07T15:47:55;99234.38;;;18.36
54306;BMP280;64314;45.188;5.712;2022-12-07T15:50:21;99229.44;;;18.35
54306;BMP280;64314;45.188;5.712;2022-12-07T15:52:47;99231.63;;;18.36
54306;BMP280;64314;45.188;5.712;2022-12-07T15:55:12;99223.19;;;18.34
54306;BMP280;64314;45.188;5.712;2022-12-07T15:57:38;99230.88;;;18.36
54306;BMP280;64314;45.188;5.712;2022-12-07T16:00:05;99224.66;;;18.35
54306;BMP280;64314;45.188;5.712;2022-12-07T16:02:31;99230.19;;;18.35